Aviation Digital Data Service (ADDS)

Output produced by METARs form (0756 UTC 18 January 2017)
found at http://aviationweather.gov/adds/metars/
 
KMGW 180520Z 1806/1906 24008KT P6SM OVC025 
     FM181100 26012KT P6SM OVC015 
     TEMPO 1812/1816 OVC008 
     FM190300 26007KT P6SM OVC006